createdAt,value
2022-12-15T00:00:47.891Z,54.54
2022-12-15T00:04:21.226Z,54.53
2022-12-15T00:07:42.777Z,54.50
2022-12-15T00:11:04.285Z,54.52
2022-12-15T00:14:25.463Z,54.49
2022-12-15T00:17:46.406Z,54.55
2022-12-15T00:21:06.992Z,54.59
2022-12-15T00:24:28.974Z,54.65
2022-12-15T00:27:50.319Z,54.66
2022-12-15T00:31:11.300Z,54.61
2022-12-15T00:34:32.511Z,54.52
2022-12-15T00:37:53.353Z,54.53
2022-12-15T00:40:59.947Z,54.55
2022-12-15T00:44:02.175Z,54.56
2022-12-15T00:47:05.648Z,54.62
2022-12-15T00:50:26.836Z,54.60
2022-12-15T00:53:47.724Z,54.67
2022-12-15T00:57:08.418Z,54.71
2022-12-15T01:00:30.225Z,54.76
2022-12-15T01:03:52.142Z,54.82
2022-12-15T01:07:13.539Z,54.86
2022-12-15T01:10:34.655Z,55.00
2022-12-15T01:13:55.999Z,55.09
2022-12-15T01:17:17.172Z,55.07
2022-12-15T01:20:19.672Z,55.09
2022-12-15T01:23:21.944Z,55.19
2022-12-15T01:26:24.652Z,55.18
2022-12-15T01:29:26.835Z,55.24
2022-12-15T01:32:29.819Z,55.13
2022-12-15T01:35:32.765Z,55.17
2022-12-15T01:38:35.470Z,55.17
2022-12-15T01:41:37.723Z,55.14
2022-12-15T01:44:41.166Z,55.17
2022-12-15T01:47:43.288Z,55.20
2022-12-15T01:50:59.179Z,55.20
2022-12-15T01:54:12.448Z,55.30
2022-12-15T01:57:19.372Z,55.35
2022-12-15T02:00:21.446Z,55.26
2022-12-15T02:03:24.575Z,55.24
2022-12-15T02:06:27.923Z,55.15
2022-12-15T02:09:31.308Z,55.10
2022-12-15T02:12:33.515Z,55.17
2022-12-15T02:15:48.217Z,55.07
2022-12-15T02:18:53.347Z,55.09
2022-12-15T02:22:14.256Z,55.05
2022-12-15T02:25:38.345Z,55.07
2022-12-15T02:29:32.384Z,55.05
2022-12-15T02:32:58.930Z,54.95
2022-12-15T02:36:12.066Z,54.92
2022-12-15T02:39:14.844Z,55.05
2022-12-15T02:42:17.547Z,55.06
2022-12-15T02:45:35.170Z,55.18
2022-12-15T02:49:05.133Z,55.23
2022-12-15T02:52:13.692Z,55.20
2022-12-15T02:55:38.466Z,55.17
2022-12-15T02:58:57.728Z,55.29
2022-12-15T03:02:06.802Z,55.38
2022-12-15T03:05:10.109Z,55.14
2022-12-15T03:08:12.471Z,55.09
2022-12-15T03:11:14.533Z,55.11
2022-12-15T03:14:18.368Z,55.11
2022-12-15T03:17:21.717Z,55.18
2022-12-15T03:20:25.003Z,55.29
2022-12-15T03:23:27.118Z,55.30
2022-12-15T03:26:29.810Z,55.29
2022-12-15T03:29:32.166Z,55.15
2022-12-15T03:32:34.674Z,55.00
2022-12-15T03:35:36.721Z,55.27
2022-12-15T03:38:40.187Z,55.23
2022-12-15T03:41:42.273Z,55.44
2022-12-15T03:44:44.957Z,55.20
2022-12-15T03:47:48.164Z,55.11
2022-12-15T03:50:50.592Z,55.03
2022-12-15T03:53:54.110Z,55.05
2022-12-15T03:56:56.358Z,55.08
2022-12-15T03:59:58.270Z,55.41
2022-12-15T04:03:01.130Z,55.53
2022-12-15T04:06:03.337Z,55.67
2022-12-15T04:09:05.728Z,55.69
2022-12-15T04:12:10.924Z,55.56
2022-12-15T04:15:13.436Z,55.50
2022-12-15T04:18:15.450Z,55.41
2022-12-15T04:21:19.096Z,55.41
2022-12-15T04:24:40.000Z,55.51
2022-12-15T04:28:01.867Z,55.73
2022-12-15T04:31:26.266Z,55.53
2022-12-15T04:34:46.954Z,55.55
2022-12-15T04:38:07.852Z,55.58
2022-12-15T04:41:28.885Z,55.71
2022-12-15T04:44:50.271Z,55.86
2022-12-15T04:48:11.767Z,55.97
2022-12-15T04:51:32.200Z,56.09
2022-12-15T04:54:53.752Z,55.90
2022-12-15T04:58:14.291Z,55.81
2022-12-15T05:01:35.644Z,55.78
2022-12-15T05:04:57.814Z,55.76
2022-12-15T05:08:19.202Z,56.01
2022-12-15T05:11:40.364Z,55.97
2022-12-15T05:15:01.800Z,56.06
2022-12-15T05:18:22.809Z,55.92
2022-12-15T05:21:43.864Z,55.74
2022-12-15T05:25:04.763Z,55.73
2022-12-15T05:28:26.512Z,55.51
2022-12-15T05:31:47.141Z,55.12
2022-12-15T05:34:49.787Z,55.13
2022-12-15T05:37:51.938Z,55.58
2022-12-15T05:40:59.489Z,55.80
2022-12-15T05:44:01.777Z,55.67
2022-12-15T05:47:05.084Z,55.72
2022-12-15T05:50:08.200Z,55.72
2022-12-15T05:53:10.566Z,55.68
2022-12-15T05:56:16.033Z,55.66
2022-12-15T05:59:19.355Z,55.68
2022-12-15T06:02:22.138Z,55.60
2022-12-15T06:05:24.846Z,55.56
2022-12-15T06:08:32.430Z,55.51
2022-12-15T06:11:37.869Z,55.46
2022-12-15T06:14:40.009Z,55.44
2022-12-15T06:17:42.738Z,55.21
2022-12-15T06:20:44.968Z,55.13
2022-12-15T06:23:52.675Z,54.96
2022-12-15T06:26:54.750Z,54.87
2022-12-15T06:29:57.136Z,54.66
2022-12-15T06:32:59.280Z,54.57
2022-12-15T06:36:03.976Z,54.48
2022-12-15T06:39:09.370Z,54.56
2022-12-15T06:42:12.158Z,54.57
2022-12-15T06:45:15.256Z,54.61
2022-12-15T06:48:18.810Z,54.64
2022-12-15T06:51:21.305Z,54.75
2022-12-15T06:54:23.708Z,54.61
2022-12-15T06:57:26.281Z,54.61
2022-12-15T07:00:28.925Z,54.85
2022-12-15T07:03:31.314Z,54.96
2022-12-15T07:06:37.059Z,54.91
2022-12-15T07:09:39.093Z,55.26
2022-12-15T07:12:41.978Z,55.20
2022-12-15T07:15:45.717Z,54.98
2022-12-15T07:18:48.129Z,54.83
2022-12-15T07:21:53.152Z,55.68
2022-12-15T07:24:56.778Z,55.21
2022-12-15T07:27:59.461Z,55.33
2022-12-15T07:31:06.283Z,55.22
2022-12-15T07:34:08.383Z,55.30
2022-12-15T07:37:10.883Z,55.15
2022-12-15T07:40:13.194Z,54.97
2022-12-15T07:43:16.551Z,55.25
2022-12-15T07:46:18.921Z,55.36
2022-12-15T07:49:22.725Z,55.32
2022-12-15T07:52:25.295Z,55.31
2022-12-15T07:55:50.185Z,55.19
2022-12-15T07:58:50.800Z,54.75
2022-12-15T08:01:54.189Z,55.29
2022-12-15T08:04:56.813Z,55.13
2022-12-15T08:07:59.346Z,55.00
2022-12-15T08:11:13.939Z,54.83
2022-12-15T08:14:18.095Z,54.78
2022-12-15T08:17:21.567Z,54.77
2022-12-15T08:20:24.327Z,54.69
2022-12-15T08:23:26.309Z,54.68
2022-12-15T08:26:31.061Z,54.54
2022-12-15T08:29:50.564Z,54.52
2022-12-15T08:32:54.150Z,54.71
2022-12-15T08:36:02.969Z,54.88
2022-12-15T08:39:05.487Z,55.12
2022-12-15T08:42:07.568Z,55.08
2022-12-15T08:45:12.551Z,55.40
2022-12-15T08:48:14.970Z,55.26
2022-12-15T08:51:18.736Z,55.29
2022-12-15T08:54:21.514Z,55.28
2022-12-15T08:57:23.971Z,55.13
2022-12-15T09:00:26.191Z,54.91
2022-12-15T09:03:28.837Z,55.20
2022-12-15T09:06:34.164Z,55.29
2022-12-15T09:09:36.504Z,55.26
2022-12-15T09:12:38.843Z,55.15
2022-12-15T09:16:08.182Z,55.15
2022-12-15T09:19:07.882Z,55.24
2022-12-15T09:22:10.335Z,55.11
2022-12-15T09:25:12.724Z,55.04
2022-12-15T09:28:15.089Z,54.98
2022-12-15T09:31:28.645Z,54.93
2022-12-15T09:34:31.542Z,54.82
2022-12-15T09:37:33.574Z,54.85
2022-12-15T09:40:36.186Z,54.80
2022-12-15T09:43:47.108Z,54.65
2022-12-15T09:46:53.766Z,54.85
2022-12-15T09:49:58.360Z,54.74
2022-12-15T09:53:01.934Z,54.76
2022-12-15T09:56:13.675Z,54.73
2022-12-15T09:59:32.618Z,54.83
2022-12-15T10:02:49.741Z,54.93
2022-12-15T10:09:22.467Z,54.74
2022-12-15T10:12:35.933Z,54.62
2022-12-15T10:16:05.618Z,54.68
2022-12-15T10:19:20.467Z,54.71
2022-12-15T10:22:30.548Z,54.83
2022-12-15T10:25:32.921Z,54.93
2022-12-15T10:28:51.161Z,54.97
2022-12-15T10:32:00.106Z,54.79
2022-12-15T10:35:02.279Z,54.85
2022-12-15T10:38:15.017Z,54.96
2022-12-15T10:41:26.167Z,55.11
2022-12-15T10:44:37.972Z,55.29
2022-12-15T10:47:40.622Z,55.27
2022-12-15T10:50:43.218Z,55.10
2022-12-15T10:53:50.985Z,55.14
2022-12-15T10:56:55.261Z,55.03
2022-12-15T11:00:30.686Z,54.98
2022-12-15T11:03:38.225Z,55.49
2022-12-15T11:06:43.481Z,55.45
2022-12-15T11:09:48.647Z,55.29
2022-12-15T11:13:16.902Z,55.33
2022-12-15T11:16:20.418Z,55.49
2022-12-15T11:19:29.113Z,55.39
2022-12-15T11:22:46.254Z,55.20
2022-12-15T11:26:16.231Z,55.07
2022-12-15T11:30:20.964Z,55.12
2022-12-15T11:33:23.581Z,55.15
2022-12-15T11:36:45.411Z,55.17
2022-12-15T11:40:15.591Z,55.11
2022-12-15T11:43:37.893Z,55.08
2022-12-15T11:46:47.284Z,55.22
2022-12-15T11:50:24.004Z,55.13
2022-12-15T11:53:45.424Z,55.13
2022-12-15T11:56:57.061Z,54.63
2022-12-15T12:00:02.619Z,54.20
2022-12-15T12:03:35.241Z,53.93
2022-12-15T12:07:02.561Z,54.89
2022-12-15T12:10:31.714Z,55.41
2022-12-15T12:14:02.587Z,55.34
2022-12-15T12:17:13.813Z,55.34
2022-12-15T12:20:22.448Z,55.41
2022-12-15T12:23:43.630Z,55.44
2022-12-15T12:26:50.179Z,55.21
2022-12-15T12:30:23.653Z,55.25
2022-12-15T12:33:44.668Z,55.17
2022-12-15T12:36:50.003Z,54.97
2022-12-15T12:39:56.743Z,54.97
2022-12-15T12:43:00.769Z,55.24
2022-12-15T12:46:23.019Z,55.37
2022-12-15T12:49:33.677Z,55.30
2022-12-15T12:52:38.167Z,55.19
2022-12-15T12:55:43.924Z,55.20
2022-12-15T12:58:48.566Z,55.02
2022-12-15T13:01:51.349Z,55.06
2022-12-15T13:05:29.072Z,54.93
2022-12-15T13:08:50.901Z,54.84
2022-12-15T13:12:01.087Z,54.73
2022-12-15T13:15:27.445Z,54.68
2022-12-15T13:18:30.079Z,54.61
2022-12-15T13:21:42.830Z,54.28
2022-12-15T13:24:51.083Z,54.49
2022-12-15T13:27:58.539Z,54.36
2022-12-15T13:31:19.565Z,54.33
2022-12-15T13:34:24.956Z,54.27
2022-12-15T13:38:00.026Z,54.08
2022-12-15T13:41:25.045Z,53.84
2022-12-15T13:44:37.400Z,53.63
2022-12-15T13:47:40.861Z,53.48
2022-12-15T13:51:20.231Z,53.47
2022-12-15T13:54:32.694Z,53.42
2022-12-15T13:57:48.911Z,53.50
2022-12-15T14:00:55.754Z,53.52
2022-12-15T14:04:05.422Z,53.40
2022-12-15T14:07:08.093Z,53.19
2022-12-15T14:10:19.781Z,53.21
2022-12-15T14:13:30.154Z,53.32
2022-12-15T14:16:35.889Z,53.12
2022-12-15T14:19:41.707Z,52.77
2022-12-15T14:22:45.061Z,52.66
2022-12-15T14:25:57.134Z,52.71
2022-12-15T14:29:02.940Z,52.53
2022-12-15T14:32:07.295Z,52.31
2022-12-15T14:35:18.840Z,52.24
2022-12-15T14:38:27.160Z,52.10
2022-12-15T14:41:34.314Z,52.18
2022-12-15T14:44:49.993Z,52.25
2022-12-15T14:48:39.067Z,52.34
2022-12-15T14:51:24.053Z,52.41
2022-12-15T14:54:37.183Z,52.33
2022-12-15T14:57:46.516Z,52.49
2022-12-15T15:03:14.542Z,52.40
2022-12-15T15:04:41.529Z,52.40
2022-12-15T15:07:45.759Z,52.16
2022-12-15T15:10:51.712Z,52.08
2022-12-15T15:13:56.829Z,51.84
2022-12-15T15:17:05.221Z,51.88
2022-12-15T15:20:32.366Z,51.94
2022-12-15T15:23:39.756Z,52.13
2022-12-15T15:26:42.124Z,52.18
2022-12-15T15:29:44.454Z,52.34
2022-12-15T15:32:54.549Z,52.37
2022-12-15T15:36:00.099Z,52.45
2022-12-15T15:39:16.819Z,52.49
2022-12-15T15:42:20.178Z,52.56
2022-12-15T15:45:23.055Z,52.63
2022-12-15T15:48:31.185Z,52.62
2022-12-15T15:51:34.370Z,52.75
2022-12-15T15:54:37.168Z,52.77
2022-12-15T15:57:39.524Z,52.79
2022-12-15T16:00:42.742Z,52.80
2022-12-15T16:03:45.391Z,52.88
2022-12-15T16:06:50.254Z,53.05
2022-12-15T16:09:54.555Z,53.02
2022-12-15T16:13:01.769Z,53.10
2022-12-15T16:16:04.911Z,53.09
2022-12-15T16:19:08.462Z,53.07
2022-12-15T16:22:16.898Z,53.24
2022-12-15T16:25:41.221Z,52.92
2022-12-15T16:29:01.560Z,49.67
2022-12-15T16:32:05.882Z,53.42
2022-12-15T16:35:08.865Z,63.67
2022-12-15T16:38:25.419Z,66.15
2022-12-15T16:41:31.398Z,67.50
2022-12-15T16:44:33.829Z,68.81
2022-12-15T16:47:35.892Z,62.67
2022-12-15T16:50:43.310Z,59.26
2022-12-15T16:53:45.834Z,57.45
2022-12-15T16:56:49.349Z,56.30
2022-12-15T16:59:51.354Z,55.59
2022-12-15T17:02:58.147Z,55.03
2022-12-15T17:06:08.142Z,54.74
2022-12-15T17:09:21.244Z,54.57
2022-12-15T17:12:23.358Z,54.41
2022-12-15T17:15:27.789Z,54.37
2022-12-15T17:18:30.653Z,54.34
2022-12-15T17:21:38.215Z,54.46
2022-12-15T17:24:43.828Z,54.34
2022-12-15T17:27:48.449Z,54.26
2022-12-15T17:30:52.317Z,54.15
2022-12-15T17:33:54.735Z,53.98
2022-12-15T17:37:06.239Z,53.96
2022-12-15T17:40:17.944Z,54.02
2022-12-15T17:43:24.124Z,53.99
2022-12-15T17:46:28.096Z,53.92
2022-12-15T17:49:35.440Z,54.03
2022-12-15T17:52:39.997Z,53.97
2022-12-15T17:55:42.434Z,53.97
2022-12-15T17:58:45.386Z,53.96
2022-12-15T18:01:47.925Z,53.91
2022-12-15T18:04:51.309Z,53.94
2022-12-15T18:07:58.717Z,53.97
2022-12-15T18:11:01.407Z,54.09
2022-12-15T18:14:03.673Z,54.13
2022-12-15T18:17:06.265Z,54.09
2022-12-15T18:20:09.893Z,54.06
2022-12-15T18:23:26.578Z,54.14
2022-12-15T18:26:29.125Z,53.95
2022-12-15T18:29:32.221Z,53.94
2022-12-15T18:32:40.126Z,54.09
2022-12-15T18:35:45.394Z,54.14
2022-12-15T18:38:47.564Z,54.27
2022-12-15T18:41:51.223Z,54.10
2022-12-15T18:44:53.806Z,54.10
2022-12-15T18:47:56.274Z,54.09
2022-12-15T18:51:02.181Z,54.15
2022-12-15T18:54:05.157Z,54.13
2022-12-15T18:57:36.263Z,54.25
2022-12-15T19:00:40.667Z,54.35
2022-12-15T19:03:44.127Z,54.51
2022-12-15T19:06:47.273Z,54.67
2022-12-15T19:09:50.985Z,54.75
2022-12-15T19:12:58.421Z,54.88
2022-12-15T19:16:03.826Z,54.82
2022-12-15T19:19:25.632Z,54.77
2022-12-15T19:22:28.235Z,54.79
2022-12-15T19:25:33.364Z,54.56
2022-12-15T19:28:38.411Z,54.19
2022-12-15T19:31:41.605Z,54.10
2022-12-15T19:34:44.913Z,54.34
2022-12-15T19:37:49.997Z,55.30
2022-12-15T19:40:55.547Z,55.68
2022-12-15T19:43:57.924Z,55.72
2022-12-15T19:47:00.336Z,55.69
2022-12-15T19:50:02.844Z,55.67
2022-12-15T19:53:31.592Z,55.63
2022-12-15T19:56:34.075Z,55.61
2022-12-15T19:59:37.162Z,55.67
2022-12-15T20:02:39.912Z,55.63
2022-12-15T20:05:42.086Z,55.76
2022-12-15T20:08:47.563Z,55.77
2022-12-15T20:11:49.553Z,56.03
2022-12-15T20:14:52.803Z,56.48
2022-12-15T20:17:58.070Z,56.72
2022-12-15T20:21:01.466Z,56.85
2022-12-15T20:24:16.384Z,56.74
2022-12-15T20:27:19.964Z,56.61
2022-12-15T20:30:25.466Z,56.77
2022-12-15T20:33:28.920Z,56.69
2022-12-15T20:36:31.816Z,56.36
2022-12-15T20:39:34.950Z,56.14
2022-12-15T20:42:36.937Z,56.16
2022-12-15T20:45:39.260Z,56.06
2022-12-15T20:48:41.734Z,56.16
2022-12-15T20:51:45.400Z,56.03
2022-12-15T20:54:47.463Z,55.90
2022-12-15T20:57:50.104Z,57.10
2022-12-15T21:00:54.917Z,57.22
2022-12-15T21:03:58.780Z,56.53
2022-12-15T21:07:01.236Z,56.29
2022-12-15T21:10:03.773Z,56.69
2022-12-15T21:13:16.162Z,56.25
2022-12-15T21:16:21.989Z,56.60
2022-12-15T21:19:24.744Z,56.47
2022-12-15T21:22:28.509Z,56.60
2022-12-15T21:25:30.499Z,56.49
2022-12-15T21:28:33.482Z,56.12
2022-12-15T21:31:35.923Z,56.01
2022-12-15T21:34:38.703Z,54.73
2022-12-15T21:37:42.986Z,57.94
2022-12-15T21:40:46.075Z,57.29
2022-12-15T21:43:49.033Z,56.90
2022-12-15T21:46:51.719Z,56.58
2022-12-15T21:49:57.002Z,56.48
2022-12-15T21:53:01.057Z,56.42
2022-12-15T21:56:03.273Z,56.51
2022-12-15T21:59:22.483Z,56.40
2022-12-15T22:02:27.295Z,55.94
2022-12-15T22:05:30.378Z,56.82
2022-12-15T22:08:32.644Z,50.01
2022-12-15T22:11:35.673Z,60.47
2022-12-15T22:14:37.627Z,59.65
2022-12-15T22:17:40.123Z,58.92
2022-12-15T22:20:42.632Z,53.27
2022-12-15T22:23:48.010Z,54.47
2022-12-15T22:26:50.303Z,53.29
2022-12-15T22:29:52.641Z,58.24
2022-12-15T22:32:55.522Z,59.66
2022-12-15T22:35:58.383Z,61.76
2022-12-15T22:39:04.395Z,64.41
2022-12-15T22:42:16.513Z,68.40
2022-12-15T22:45:21.404Z,70.27
2022-12-15T22:48:26.544Z,70.27
2022-12-15T22:51:28.422Z,70.13
2022-12-15T22:54:32.133Z,71.08
2022-12-15T22:57:35.095Z,71.31
2022-12-15T23:00:38.004Z,76.80
2022-12-15T23:03:40.208Z,72.75
2022-12-15T23:06:42.895Z,69.08
2022-12-15T23:09:44.922Z,74.35
2022-12-15T23:12:47.303Z,68.45
2022-12-15T23:16:09.343Z,69.47
2022-12-15T23:19:24.093Z,71.63
2022-12-15T23:22:26.447Z,74.21
2022-12-15T23:25:29.441Z,75.92
2022-12-15T23:28:33.758Z,72.21
2022-12-15T23:31:36.390Z,68.83
2022-12-15T23:34:38.399Z,68.61
2022-12-15T23:37:41.027Z,67.86
2022-12-15T23:40:52.535Z,65.47
2022-12-15T23:43:56.485Z,65.69
2022-12-15T23:46:58.748Z,65.64
2022-12-15T23:50:01.870Z,64.83
2022-12-15T23:53:05.004Z,62.69
2022-12-15T23:56:11.843Z,66.72
2022-12-15T23:59:14.526Z,72.19
